Time;durP1;ratioP1;P1;durP2;ratioP2;P2;SDS_P1;SDS_P2;PMS_P1;PMS_P2;Temp;Humidity;BMP_temperature;BMP_pressure;BME280_temperature;BME280_humidity;BME280_pressure;Samples;Min_cycle;Max_cycle;Signal;HPM_P1;HPM_P2
2021/07/20 00:00:32;;;;;;;1.87;1.00;;;17.20;99.90;;;;;;5014715;28;20269;-88
2021/07/20 00:02:58;;;;;;;0.63;0.63;;;17.20;99.90;;;;;;5025122;28;21752;-87
2021/07/20 00:05:27;;;;;;;0.87;0.70;;;17.30;99.90;;;;;;5022334;28;20289;-87
2021/07/20 00:08:01;;;;;;;1.30;0.77;;;17.30;99.90;;;;;;5031248;28;20194;-88
2021/07/20 00:10:37;;;;;;;1.47;1.30;;;17.40;99.90;;;;;;5043500;28;20178;-88
2021/07/20 00:13:05;;;;;;;1.13;0.57;;;17.40;99.90;;;;;;5020181;28;20178;-87
2021/07/20 00:15:30;;;;;;;1.77;1.67;;;17.30;99.90;;;;;;5023819;28;20186;-88
2021/07/20 00:17:58;;;;;;;4.10;1.97;;;17.10;99.90;;;;;;5035169;28;20684;-87
2021/07/20 00:20:28;;;;;;;1.73;0.80;;;16.90;99.90;;;;;;5041375;28;20680;-87
2021/07/20 00:22:54;;;;;;;1.47;1.37;;;16.90;99.90;;;;;;5023509;28;20182;-87
2021/07/20 00:25:20;;;;;;;1.13;1.03;;;16.90;99.90;;;;;;5006606;28;20245;-88
2021/07/20 00:27:46;;;;;;;1.77;0.80;;;16.80;99.90;;;;;;5016369;28;20206;-87
2021/07/20 00:30:13;;;;;;;1.33;0.70;;;16.70;99.90;;;;;;5021794;28;20281;-87
2021/07/20 00:32:39;;;;;;;1.07;0.53;;;16.50;99.90;;;;;;5028670;28;20179;-87
2021/07/20 00:35:08;;;;;;;2.03;0.63;;;16.50;99.90;;;;;;5011940;28;20181;-87
2021/07/20 00:37:34;;;;;;;1.13;0.70;;;16.40;99.90;;;;;;5041456;28;20181;-88
2021/07/20 00:39:59;;;;;;;4.97;1.00;;;16.40;99.90;;;;;;5026390;28;20178;-87
2021/07/20 00:42:25;;;;;;;1.20;0.97;;;16.40;99.90;;;;;;5032246;28;20177;-88
2021/07/20 00:44:50;;;;;;;2.17;1.27;;;16.40;99.90;;;;;;5044120;28;20213;-88
2021/07/20 00:47:17;;;;;;;1.83;1.57;;;16.30;99.90;;;;;;5024806;28;20236;-88
2021/07/20 00:49:44;;;;;;;0.63;0.63;;;16.30;99.90;;;;;;5018230;28;20201;-88
2021/07/20 00:52:09;;;;;;;1.20;1.07;;;16.30;99.90;;;;;;5033350;28;20193;-88
2021/07/20 00:54:37;;;;;;;2.93;1.60;;;16.30;99.90;;;;;;5018714;28;20185;-87
2021/07/20 00:57:03;;;;;;;2.83;2.00;;;16.30;99.90;;;;;;5048394;28;20177;-87
2021/07/20 00:59:30;;;;;;;0.97;0.97;;;16.50;99.90;;;;;;5034934;28;20273;-87
2021/07/20 01:01:56;;;;;;;1.53;0.73;;;16.70;99.90;;;;;;5039395;28;20177;-87
2021/07/20 01:04:22;;;;;;;1.30;0.97;;;16.80;99.90;;;;;;5039322;28;20599;-88
2021/07/20 01:06:49;;;;;;;1.33;1.20;;;16.90;99.90;;;;;;5024548;28;20538;-88
2021/07/20 01:09:17;;;;;;;0.67;0.67;;;16.90;99.90;;;;;;5015583;28;20206;-87
2021/07/20 01:11:43;;;;;;;2.67;1.20;;;17.00;99.90;;;;;;5017369;28;20182;-87
2021/07/20 01:14:09;;;;;;;1.13;0.77;;;17.10;99.90;;;;;;5043683;28;20181;-88
2021/07/20 01:16:37;;;;;;;1.13;0.50;;;17.20;99.90;;;;;;5023927;28;20186;-87
2021/07/20 01:19:07;;;;;;;1.30;0.90;;;17.30;99.90;;;;;;5016546;28;20256;-88
2021/07/20 01:21:35;;;;;;;0.70;0.70;;;17.30;99.90;;;;;;5010681;28;20232;-87
2021/07/20 01:24:09;;;;;;;1.77;0.53;;;17.30;99.90;;;;;;5035142;28;20550;-88
2021/07/20 01:26:36;;;;;;;1.30;0.93;;;17.10;99.90;;;;;;5034797;28;20564;-87
2021/07/20 01:29:03;;;;;;;1.30;1.10;;;16.90;99.90;;;;;;5032597;28;20213;-87
2021/07/20 01:31:34;;;;;;;1.50;0.97;;;16.90;99.90;;;;;;5038415;28;20222;-87
2021/07/20 01:34:01;;;;;;;1.87;0.87;;;16.90;99.90;;;;;;5029130;28;20182;-87
2021/07/20 01:36:30;;;;;;;1.80;1.23;;;16.90;99.90;;;;;;5045587;28;20181;-88
2021/07/20 01:38:57;;;;;;;1.77;1.50;;;16.90;99.90;;;;;;5010705;28;20202;-87
2021/07/20 01:41:24;;;;;;;0.73;0.73;;;16.90;99.90;;;;;;5016462;28;20256;-87
2021/07/20 01:43:59;;;;;;;1.03;0.73;;;16.90;99.90;;;;;;5038240;28;20224;-87
2021/07/20 01:46:32;;;;;;;1.37;1.10;;;17.00;99.90;;;;;;5043331;28;20217;-87
2021/07/20 01:49:01;;;;;;;5.40;0.97;;;17.00;99.90;;;;;;5024359;28;20296;-88
2021/07/20 01:51:27;;;;;;;2.20;1.60;;;16.70;99.90;;;;;;5035619;28;20181;-87
2021/07/20 01:53:54;;;;;;;1.90;1.23;;;16.40;99.90;;;;;;5016636;28;20178;-87
2021/07/20 01:56:21;;;;;;;0.93;0.93;;;16.20;99.90;;;;;;5037970;28;20179;-87
2021/07/20 01:58:49;;;;;;;0.67;0.67;;;16.40;99.90;;;;;;5032037;28;20299;-87
2021/07/20 02:01:21;;;;;;;1.03;0.80;;;16.50;99.90;;;;;;5020756;28;20505;-87
2021/07/20 02:09:24;;;;;;;1.23;1.03;;;16.80;99.90;;;;;;5040263;28;20204;-87
2021/07/20 02:11:54;;;;;;;1.30;0.90;;;16.90;99.90;;;;;;5040674;28;20657;-88
2021/07/20 02:14:23;;;;;;;0.90;0.90;;;16.90;99.90;;;;;;5017742;28;20562;-88
2021/07/20 02:16:50;;;;;;;0.93;0.83;;;17.00;99.90;;;;;;5018220;28;20175;-88
2021/07/20 02:19:42;;;;;;;0.60;0.60;;;16.90;99.90;;;;;;5030009;28;20202;-88
2021/07/20 02:22:09;;;;;;;1.03;0.73;;;16.90;99.90;;;;;;4996024;28;20716;-88
2021/07/20 02:24:37;;;;;;;0.90;0.90;;;16.90;99.90;;;;;;5027867;28;20183;-88
2021/07/20 02:27:08;;;;;;;1.13;0.97;;;16.80;99.90;;;;;;5021142;28;20182;-88
2021/07/20 02:29:34;;;;;;;5.50;1.87;;;16.30;99.90;;;;;;5022236;28;20201;-88
2021/07/20 02:32:04;;;;;;;0.30;0.30;;;16.20;99.90;;;;;;5032272;28;20197;-87
2021/07/20 02:34:33;;;;;;;0.73;0.63;;;16.10;99.90;;;;;;5024966;28;20194;-88
2021/07/20 02:36:59;;;;;;;1.03;0.90;;;16.10;99.90;;;;;;5021329;28;20189;-88
2021/07/20 02:39:25;;;;;;;1.30;0.73;;;15.90;99.90;;;;;;5030474;28;20692;-88
2021/07/20 02:41:54;;;;;;;0.80;0.80;;;15.90;99.90;;;;;;5016136;28;20267;-88
2021/07/20 02:44:22;;;;;;;1.13;1.03;;;15.80;99.90;;;;;;5019934;28;20698;-89
2021/07/20 02:46:48;;;;;;;0.93;0.60;;;15.80;99.90;;;;;;5016778;28;20194;-88
2021/07/20 02:49:15;;;;;;;0.83;0.83;;;16.00;99.90;;;;;;5028967;28;20251;-89
2021/07/20 02:51:44;;;;;;;1.30;1.03;;;16.10;99.90;;;;;;5012241;28;20598;-88
2021/07/20 02:54:10;;;;;;;3.63;0.77;;;16.00;99.90;;;;;;5029198;28;20186;-88
2021/07/20 02:56:46;;;;;;;0.57;0.57;;;15.80;99.90;;;;;;5027722;28;20211;-88
2021/07/20 02:59:15;;;;;;;1.30;1.10;;;15.80;99.90;;;;;;5007820;28;20224;-88
2021/07/20 03:01:42;;;;;;;0.93;0.80;;;15.70;99.90;;;;;;5037290;28;20181;-88
2021/07/20 03:04:08;;;;;;;0.40;0.30;;;15.70;99.90;;;;;;5017386;28;20535;-87
2021/07/20 03:06:37;;;;;;;1.03;0.73;;;15.80;99.90;;;;;;5031709;28;20205;-88
2021/07/20 03:09:04;;;;;;;1.50;1.40;;;15.90;99.90;;;;;;5013713;28;20213;-88
2021/07/20 03:11:34;;;;;;;2.83;1.00;;;15.90;99.90;;;;;;5034970;28;20186;-88
2021/07/20 03:14:04;;;;;;;1.77;1.67;;;16.00;99.90;;;;;;5015480;28;20225;-88
2021/07/20 03:16:30;;;;;;;7.03;0.90;;;15.90;99.90;;;;;;5045040;28;20181;-88
2021/07/20 03:18:56;;;;;;;1.33;1.23;;;16.00;99.90;;;;;;5030235;28;20208;-88
2021/07/20 03:21:23;;;;;;;1.07;0.93;;;15.80;99.90;;;;;;5034068;28;20530;-87
2021/07/20 03:23:51;;;;;;;1.90;1.10;;;15.70;99.90;;;;;;5027432;28;20258;-90
2021/07/20 03:26:18;;;;;;;3.30;0.43;;;15.80;99.90;;;;;;5018627;28;20288;-88
2021/07/20 03:28:45;;;;;;;0.80;0.80;;;15.90;99.90;;;;;;5005830;28;20207;-88
2021/07/20 03:31:12;;;;;;;0.37;0.37;;;16.10;99.90;;;;;;5036349;28;20207;-88
2021/07/20 03:33:40;;;;;;;0.83;0.77;;;16.10;99.90;;;;;;5032067;28;20181;-89
2021/07/20 03:36:06;;;;;;;2.37;0.80;;;16.10;99.90;;;;;;5007749;28;20228;-88
2021/07/20 03:38:34;;;;;;;1.93;0.83;;;16.00;99.90;;;;;;5023560;28;20220;-88
2021/07/20 03:41:00;;;;;;;0.60;0.60;;;15.80;99.90;;;;;;5035404;28;20283;-87
2021/07/20 03:43:27;;;;;;;0.83;0.80;;;16.00;99.90;;;;;;5040571;28;20187;-88
2021/07/20 03:45:54;;;;;;;0.80;0.80;;;16.10;99.90;;;;;;5036741;28;20219;-90
2021/07/20 03:48:20;;;;;;;1.00;0.77;;;16.30;99.90;;;;;;5020317;28;20203;-88
2021/07/20 03:50:49;;;;;;;1.00;0.90;;;16.40;99.90;;;;;;5046134;28;20235;-88
2021/07/20 03:53:15;;;;;;;0.60;0.60;;;16.50;99.90;;;;;;5033123;28;20214;-88
2021/07/20 03:56:14;;;;;;;0.70;0.70;;;16.60;99.90;;;;;;5020702;28;20196;-89
2021/07/20 03:58:59;;;;;;;1.17;1.07;;;16.70;99.90;;;;;;5013714;28;20288;-88
2021/07/20 04:01:31;;;;;;;0.33;0.33;;;16.90;99.90;;;;;;5024536;28;20181;-88
2021/07/20 04:03:58;;;;;;;1.20;1.10;;;17.00;99.90;;;;;;5029665;28;20220;-88
2021/07/20 04:06:25;;;;;;;1.23;0.43;;;17.20;99.90;;;;;;5027271;28;20219;-88
2021/07/20 04:08:52;;;;;;;0.67;0.60;;;17.10;99.90;;;;;;5016798;28;20205;-88
2021/07/20 04:11:18;;;;;;;0.60;0.57;;;17.60;99.90;;;;;;5020568;28;20276;-88
2021/07/20 04:13:44;;;;;;;1.03;0.67;;;18.00;99.90;;;;;;5019589;28;20189;-88
2021/07/20 04:16:12;;;;;;;1.80;0.93;;;18.30;99.90;;;;;;5020793;28;20182;-87
2021/07/20 04:18:39;;;;;;;0.83;0.77;;;18.50;99.90;;;;;;5044217;28;20288;-87
2021/07/20 04:21:06;;;;;;;1.40;0.97;;;18.50;99.90;;;;;;5023590;28;20205;-88
2021/07/20 04:23:33;;;;;;;1.17;1.07;;;18.70;99.90;;;;;;5041973;28;20175;-88
2021/07/20 04:26:00;;;;;;;2.67;1.00;;;18.60;99.90;;;;;;5027997;28;20683;-88
2021/07/20 04:28:27;;;;;;;0.83;0.83;;;18.60;99.90;;;;;;5031099;28;20206;-88
2021/07/20 04:30:53;;;;;;;0.57;0.57;;;18.50;99.90;;;;;;5041995;28;20201;-88
2021/07/20 04:33:32;;;;;;;1.00;0.87;;;18.30;99.90;;;;;;5031773;28;20603;-88
2021/07/20 04:35:59;;;;;;;1.40;1.00;;;18.10;99.90;;;;;;5030962;28;20177;-88
2021/07/20 04:38:25;;;;;;;1.43;0.87;;;18.00;99.90;;;;;;5023947;28;20213;-88
2021/07/20 04:41:06;;;;;;;3.60;1.50;;;18.10;99.90;;;;;;5024330;28;20205;-88
2021/07/20 04:43:32;;;;;;;0.77;0.77;;;18.10;99.90;;;;;;5019852;28;20187;-88
2021/07/20 04:46:00;;;;;;;1.13;1.13;;;18.00;99.90;;;;;;5018876;28;20232;-86
2021/07/20 04:48:39;;;;;;;1.10;1.00;;;18.00;99.90;;;;;;5033990;28;20292;-88
2021/07/20 04:51:05;;;;;;;0.87;0.77;;;18.10;99.90;;;;;;5023030;28;20189;-88
2021/07/20 04:53:38;;;;;;;0.90;0.90;;;18.10;99.90;;;;;;5033074;28;20186;-87
2021/07/20 04:56:04;;;;;;;1.60;0.90;;;18.10;99.90;;;;;;5019698;28;20662;-87
2021/07/20 04:58:29;;;;;;;0.83;0.80;;;18.10;99.90;;;;;;5023091;28;20255;-88
2021/07/20 05:00:55;;;;;;;1.73;1.43;;;18.00;99.90;;;;;;5013709;28;20609;-88
2021/07/20 05:03:23;;;;;;;0.97;0.97;;;18.00;99.90;;;;;;5026270;28;20193;-88
2021/07/20 05:05:52;;;;;;;0.47;0.47;;;18.00;99.90;;;;;;5022956;28;20276;-88
2021/07/20 05:08:19;;;;;;;0.70;0.63;;;18.00;99.90;;;;;;5022397;28;20213;-88
2021/07/20 05:10:50;;;;;;;1.83;0.93;;;18.10;99.90;;;;;;5031025;28;20177;-86
2021/07/20 05:13:17;;;;;;;1.40;0.90;;;18.20;99.90;;;;;;5046294;28;20595;-86
2021/07/20 05:15:49;;;;;;;1.80;0.53;;;18.10;99.90;;;;;;5027269;28;20265;-86
2021/07/20 05:18:15;;;;;;;1.40;1.30;;;18.20;99.90;;;;;;5029241;28;20210;-89
2021/07/20 05:20:44;;;;;;;5.87;2.20;;;18.20;99.90;;;;;;4998631;28;20266;-87
2021/07/20 05:23:15;;;;;;;1.67;1.17;;;18.10;99.90;;;;;;5016656;28;20221;-87
2021/07/20 05:25:45;;;;;;;1.30;0.90;;;18.20;99.90;;;;;;5035217;28;20224;-87
2021/07/20 05:28:16;;;;;;;2.37;1.33;;;18.00;99.90;;;;;;5009766;28;20204;-87
2021/07/20 05:30:43;;;;;;;3.00;1.33;;;18.10;99.90;;;;;;5022539;28;20265;-87
2021/07/20 05:33:25;;;;;;;2.13;0.80;;;18.10;99.90;;;;;;5017553;28;20193;-87
2021/07/20 05:35:59;;;;;;;0.97;0.97;;;18.10;99.90;;;;;;5017938;28;20191;-87
2021/07/20 05:38:25;;;;;;;0.83;0.80;;;18.20;99.90;;;;;;5026162;28;20296;-87
2021/07/20 05:40:54;;;;;;;2.23;1.23;;;18.30;99.90;;;;;;5021996;28;20277;-87
2021/07/20 05:43:21;;;;;;;0.97;0.90;;;18.50;99.90;;;;;;5025422;28;20187;-87
2021/07/20 05:45:48;;;;;;;0.90;0.90;;;18.50;99.90;;;;;;5021242;28;20280;-87
2021/07/20 05:48:19;;;;;;;0.70;0.70;;;18.50;99.90;;;;;;5016648;28;20214;-87
2021/07/20 05:50:54;;;;;;;1.70;1.27;;;18.70;99.90;;;;;;5023013;28;20191;-87
2021/07/20 05:53:22;;;;;;;1.13;0.73;;;18.80;99.90;;;;;;5022856;28;20193;-87
2021/07/20 05:55:50;;;;;;;1.63;1.00;;;18.90;99.90;;;;;;5030905;28;20698;-87
2021/07/20 05:58:21;;;;;;;0.90;0.83;;;19.00;99.90;;;;;;5009057;28;20257;-87
2021/07/20 06:00:48;;;;;;;1.07;0.73;;;19.00;99.90;;;;;;5025619;28;20200;-87
2021/07/20 06:03:16;;;;;;;2.03;1.27;;;19.20;99.90;;;;;;5035070;28;20192;-87
2021/07/20 06:05:43;;;;;;;0.97;0.70;;;19.40;99.90;;;;;;5027928;28;20409;-87
2021/07/20 06:08:16;;;;;;;1.13;1.07;;;19.50;99.90;;;;;;5013919;28;20678;-87
2021/07/20 06:10:50;;;;;;;1.30;0.90;;;19.60;99.90;;;;;;5011409;28;20198;-87
2021/07/20 06:13:16;;;;;;;1.87;1.50;;;19.60;99.90;;;;;;5026818;28;20178;-87
2021/07/20 06:15:44;;;;;;;0.63;0.63;;;19.70;99.90;;;;;;5016378;28;20201;-88
2021/07/20 06:18:10;;;;;;;2.37;0.70;;;19.90;99.90;;;;;;5026836;28;20265;-87
2021/07/20 06:20:36;;;;;;;0.87;0.87;;;20.00;99.90;;;;;;5014230;28;20226;-87
2021/07/20 06:23:03;;;;;;;1.60;0.83;;;20.10;99.90;;;;;;5012372;28;20274;-87
2021/07/20 06:25:29;;;;;;;4.30;1.90;;;20.10;99.90;;;;;;5013029;28;20207;-87
2021/07/20 06:27:57;;;;;;;1.10;0.97;;;20.20;99.90;;;;;;5035341;28;20579;-87
2021/07/20 06:30:22;;;;;;;5.10;1.20;;;20.10;99.90;;;;;;5015251;28;20191;-87
2021/07/20 06:32:50;;;;;;;4.17;2.07;;;19.60;99.90;;;;;;5052606;28;20261;-87
2021/07/20 06:35:17;;;;;;;1.17;1.07;;;18.90;99.90;;;;;;5035276;28;20196;-87
2021/07/20 06:37:45;;;;;;;1.23;1.13;;;19.10;99.90;;;;;;5028640;28;20220;-87
2021/07/20 06:40:22;;;;;;;1.67;1.57;;;19.60;99.90;;;;;;5045690;28;20221;-87
2021/07/20 06:42:49;;;;;;;1.37;1.27;;;19.70;99.90;;;;;;5024040;28;20626;-87
2021/07/20 06:45:16;;;;;;;1.13;1.03;;;20.10;99.90;;;;;;5024560;28;20209;-87
2021/07/20 06:47:45;;;;;;;0.43;0.43;;;20.40;99.90;;;;;;5014809;28;20600;-87
2021/07/20 06:50:23;;;;;;;1.83;1.70;;;20.60;99.90;;;;;;5022006;28;20213;-87
2021/07/20 06:52:49;;;;;;;1.50;0.73;;;20.50;99.90;;;;;;5034996;28;20187;-90
2021/07/20 06:55:16;;;;;;;1.47;1.17;;;20.70;99.90;;;;;;5005892;28;20532;-87
2021/07/20 06:57:47;;;;;;;1.73;1.47;;;21.00;99.90;;;;;;5010196;28;20205;-88
2021/07/20 07:00:16;;;;;;;2.00;1.90;;;20.50;99.90;;;;;;5018262;28;20201;-88
2021/07/20 07:02:45;;;;;;;0.80;0.80;;;20.30;99.90;;;;;;5045454;28;20243;-88
2021/07/20 07:05:13;;;;;;;0.33;0.33;;;20.10;99.90;;;;;;5014785;28;20206;-90
2021/07/20 07:07:39;;;;;;;1.57;0.93;;;20.50;99.90;;;;;;5033788;28;20538;-88
2021/07/20 07:10:08;;;;;;;2.70;0.73;;;20.90;99.90;;;;;;5013622;28;20183;-89
2021/07/20 07:12:46;;;;;;;1.00;1.00;;;21.30;99.90;;;;;;5017985;28;20270;-88
2021/07/20 07:15:13;;;;;;;1.00;0.90;;;21.60;99.90;;;;;;5025006;28;20190;-88
2021/07/20 07:17:39;;;;;;;1.27;1.17;;;21.00;99.90;;;;;;5012316;28;20194;-88
2021/07/20 07:20:06;;;;;;;2.07;1.40;;;21.30;99.90;;;;;;5016457;28;20679;-88
2021/07/20 07:22:34;;;;;;;2.40;1.57;;;21.20;99.90;;;;;;5013109;28;20202;-88
2021/07/20 07:25:00;;;;;;;1.80;1.30;;;20.60;99.90;;;;;;5019978;28;20335;-88
2021/07/20 07:27:26;;;;;;;1.33;1.20;;;21.30;99.90;;;;;;5036913;28;20248;-88
2021/07/20 07:29:53;;;;;;;1.80;1.00;;;21.60;99.90;;;;;;5034688;28;20252;-88
2021/07/20 07:32:37;;;;;;;1.53;1.23;;;21.30;99.90;;;;;;5027355;28;20178;-87
2021/07/20 07:35:18;;;;;;;1.23;1.00;;;21.10;99.90;;;;;;5033460;28;20241;-87
2021/07/20 07:37:45;;;;;;;0.83;0.83;;;21.50;99.90;;;;;;5031554;28;20186;-88
2021/07/20 07:40:13;;;;;;;1.80;1.70;;;20.80;99.90;;;;;;5015700;28;20286;-87
2021/07/20 07:42:39;;;;;;;1.33;1.23;;;21.30;99.90;;;;;;5018305;28;20645;-87
2021/07/20 07:45:07;;;;;;;2.50;2.30;;;21.60;99.90;;;;;;5016508;28;20217;-87
2021/07/20 07:47:33;;;;;;;1.43;1.37;;;21.10;99.90;;;;;;5036613;28;20681;-87
2021/07/20 07:49:59;;;;;;;0.93;0.90;;;21.40;99.90;;;;;;5023067;28;20175;-87
2021/07/20 07:52:25;;;;;;;0.70;0.70;;;21.00;99.90;;;;;;5010119;28;20191;-87
2021/07/20 07:54:51;;;;;;;1.80;1.30;;;21.20;99.90;;;;;;5021206;28;20236;-87
2021/07/20 07:57:19;;;;;;;1.17;1.07;;;21.50;99.90;;;;;;5021030;28;20273;-87
2021/07/20 07:59:48;;;;;;;4.97;1.73;;;21.60;99.90;;;;;;5022765;28;20571;-87
2021/07/20 08:02:21;;;;;;;0.93;0.90;;;21.60;99.90;;;;;;5023224;28;20296;-87
2021/07/20 08:05:05;;;;;;;2.00;1.37;;;21.60;99.90;;;;;;5020308;28;20183;-87
2021/07/20 08:07:31;;;;;;;3.43;1.10;;;21.40;99.90;;;;;;5012463;28;20631;-89
2021/07/20 08:09:58;;;;;;;1.50;1.10;;;22.20;99.90;;;;;;5016366;28;20187;-86
2021/07/20 08:12:26;;;;;;;1.70;1.60;;;21.80;99.90;;;;;;5017918;28;20190;-86
2021/07/20 08:14:52;;;;;;;1.00;0.90;;;22.10;99.90;;;;;;5011892;28;20193;-87
2021/07/20 08:17:18;;;;;;;1.43;1.33;;;21.90;99.90;;;;;;5029058;28;20257;-87
2021/07/20 08:19:45;;;;;;;1.13;1.03;;;22.00;99.90;;;;;;5004095;28;20662;-87
2021/07/20 08:22:15;;;;;;;2.37;1.70;;;21.80;99.90;;;;;;5038538;28;20185;-87
2021/07/20 08:25:07;;;;;;;2.30;0.80;;;22.40;99.90;;;;;;5041877;28;20192;-88
2021/07/20 08:27:57;;;;;;;1.67;1.57;;;22.30;99.90;;;;;;5017582;28;20186;-87
2021/07/20 08:30:23;;;;;;;1.60;1.20;;;22.20;99.90;;;;;;5005243;28;20694;-89
2021/07/20 08:32:57;;;;;;;1.17;0.87;;;21.90;99.90;;;;;;5049488;28;20178;-88
2021/07/20 08:35:28;;;;;;;1.03;0.83;;;22.30;99.90;;;;;;5023492;28;20191;-88
2021/07/20 08:37:58;;;;;;;0.63;0.63;;;22.30;99.90;;;;;;5034215;28;20285;-87
2021/07/20 08:40:33;;;;;;;1.20;1.10;;;22.80;99.90;;;;;;5030078;28;20218;-88
2021/07/20 08:43:07;;;;;;;3.63;1.30;;;22.20;99.90;;;;;;5011255;28;20202;-87
2021/07/20 08:45:46;;;;;;;1.13;1.03;;;21.60;99.90;;;;;;5014091;28;20198;-88
2021/07/20 08:48:31;;;;;;;1.47;1.20;;;21.00;99.90;;;;;;5025515;28;20206;-88
2021/07/20 08:51:04;;;;;;;0.50;0.50;;;21.00;99.90;;;;;;5014662;28;20180;-86
2021/07/20 08:54:01;;;;;;;0.60;0.60;;;21.30;99.90;;;;;;5027045;28;20190;-88
2021/07/20 08:56:29;;;;;;;0.57;0.57;;;22.20;99.90;;;;;;5013079;28;20182;-87
2021/07/20 08:59:07;;;;;;;1.50;1.33;;;22.60;99.90;;;;;;5018820;28;20217;-88
2021/07/20 09:01:48;;;;;;;0.80;0.80;;;22.40;99.90;;;;;;5021732;28;20194;-87
2021/07/20 09:04:35;;;;;;;0.77;0.70;;;22.50;99.90;;;;;;5023101;28;20666;-88
2021/07/20 09:07:12;;;;;;;1.73;1.00;;;22.70;99.90;;;;;;5009286;28;20206;-86
2021/07/20 09:09:46;;;;;;;2.00;1.33;;;21.80;99.90;;;;;;5036271;28;20206;-88
2021/07/20 09:12:26;;;;;;;2.57;1.47;;;21.70;99.90;;;;;;5038856;28;20213;-88
2021/07/20 09:15:04;;;;;;;1.43;1.33;;;21.80;99.90;;;;;;5017311;28;20780;-87
2021/07/20 09:18:19;;;;;;;1.40;1.30;;;22.20;99.90;;;;;;5020129;28;20236;-91
2021/07/20 09:20:50;;;;;;;0.47;0.47;;;22.90;99.90;;;;;;5019560;28;20183;-88
2021/07/20 09:23:24;;;;;;;0.83;0.83;;;23.20;99.90;;;;;;5018660;28;20186;-87
2021/07/20 09:26:08;;;;;;;1.10;0.97;;;23.20;99.90;;;;;;5007739;28;20214;-87
2021/07/20 09:29:02;;;;;;;0.90;0.73;;;23.50;99.90;;;;;;5035709;28;20370;-87
2021/07/20 09:31:47;;;;;;;1.63;0.90;;;23.20;99.90;;;;;;5018145;28;20194;-87
2021/07/20 09:34:21;;;;;;;1.13;0.90;;;23.20;99.90;;;;;;5032193;28;20656;-88
2021/07/20 09:37:04;;;;;;;1.10;0.80;;;23.60;99.90;;;;;;5025433;28;20193;-87
2021/07/20 09:39:49;;;;;;;1.90;1.00;;;24.00;99.90;;;;;;5027536;28;20229;-88
2021/07/20 09:42:52;;;;;;;0.87;0.87;;;23.00;99.90;;;;;;5022678;28;20198;-88
2021/07/20 09:45:35;;;;;;;1.47;1.03;;;23.40;99.90;;;;;;5019739;28;20305;-87
2021/07/20 09:48:22;;;;;;;0.90;0.80;;;23.40;99.90;;;;;;5025239;28;20210;-88
2021/07/20 09:51:01;;;;;;;0.87;0.63;;;23.30;99.90;;;;;;5019098;28;20200;-88
2021/07/20 09:53:49;;;;;;;1.40;1.03;;;23.20;99.90;;;;;;5022915;28;20599;-88
2021/07/20 09:56:16;;;;;;;1.97;0.80;;;23.30;99.90;;;;;;5005838;28;20214;-88
2021/07/20 09:58:57;;;;;;;3.80;1.00;;;23.40;99.90;;;;;;5013181;28;20649;-88
2021/07/20 10:01:38;;;;;;;0.30;0.30;;;23.60;99.90;;;;;;5027490;28;20193;-90
2021/07/20 10:04:34;;;;;;;1.43;1.00;;;24.30;99.90;;;;;;5019880;28;20218;-88
2021/07/20 10:07:06;;;;;;;1.50;0.93;;;24.70;99.90;;;;;;5022225;28;20221;-88
2021/07/20 10:09:52;;;;;;;0.70;0.70;;;25.20;99.90;;;;;;5022887;28;20198;-88
2021/07/20 10:12:45;;;;;;;1.13;1.07;;;25.10;99.90;;;;;;5028008;28;20233;-88
2021/07/20 10:15:13;;;;;;;1.50;1.40;;;24.80;99.90;;;;;;5004076;28;20269;-88
2021/07/20 10:17:50;;;;;;;1.13;0.90;;;24.50;99.90;;;;;;5015789;28;20185;-89
2021/07/20 10:20:17;;;;;;;1.70;0.73;;;24.00;99.90;;;;;;5017575;28;20192;-88
2021/07/20 10:23:11;;;;;;;2.43;1.47;;;23.40;99.90;;;;;;5025632;28;20841;-88
2021/07/20 10:25:46;;;;;;;1.70;1.00;;;22.90;99.90;;;;;;5029013;28;20208;-89
2021/07/20 10:28:26;;;;;;;0.93;0.77;;;22.70;99.90;;;;;;5025863;28;20199;-88
2021/07/20 10:31:01;;;;;;;2.27;1.00;;;23.00;99.90;;;;;;5002251;28;20193;-88
2021/07/20 10:33:35;;;;;;;1.47;0.97;;;22.80;99.90;;;;;;5023114;28;20178;-88
2021/07/20 10:36:09;;;;;;;1.77;0.70;;;23.10;99.90;;;;;;5028095;28;20280;-88
2021/07/20 10:39:08;;;;;;;0.73;0.73;;;24.10;99.90;;;;;;5035703;28;20197;-87
2021/07/20 10:41:44;;;;;;;0.57;0.57;;;24.80;99.90;;;;;;5011797;28;20198;-87
2021/07/20 10:44:21;;;;;;;3.73;1.13;;;25.50;99.90;;;;;;5027984;28;20196;-88
2021/07/20 10:46:53;;;;;;;1.10;1.00;;;25.30;99.90;;;;;;5037261;28;20218;-88
2021/07/20 10:49:32;;;;;;;1.57;1.13;;;25.20;99.90;;;;;;5024176;28;20202;-88
2021/07/20 10:52:09;;;;;;;0.63;0.40;;;25.60;99.90;;;;;;5015362;28;20178;-88
2021/07/20 10:54:41;;;;;;;0.53;0.53;;;25.80;99.90;;;;;;5014998;28;20185;-88
2021/07/20 10:57:16;;;;;;;1.10;1.00;;;25.90;99.90;;;;;;5039592;28;20201;-88
2021/07/20 11:00:01;;;;;;;2.20;1.50;;;24.50;99.90;;;;;;5044812;28;20208;-88
2021/07/20 11:03:06;;;;;;;1.07;1.07;;;23.90;99.90;;;;;;5021413;28;20272;-88
2021/07/20 11:05:40;;;;;;;1.63;0.90;;;23.60;99.90;;;;;;5022250;28;20220;-88
2021/07/20 11:08:08;;;;;;;4.80;0.53;;;24.10;99.90;;;;;;5018520;28;20209;-88
2021/07/20 11:10:52;;;;;;;5.40;0.67;;;24.80;99.90;;;;;;5025080;28;20283;-87
2021/07/20 11:13:50;;;;;;;1.27;1.00;;;24.60;99.90;;;;;;5027987;28;20186;-88
2021/07/20 11:16:16;;;;;;;1.07;1.00;;;24.80;99.90;;;;;;5006033;28;20721;-88
2021/07/20 11:18:44;;;;;;;1.07;1.00;;;24.10;99.90;;;;;;5013980;28;20221;-88
2021/07/20 11:21:13;;;;;;;0.67;0.67;;;23.60;99.90;;;;;;5010117;28;20178;-87
2021/07/20 11:23:43;;;;;;;1.90;1.13;;;23.30;99.90;;;;;;5035712;28;20187;-87
2021/07/20 11:26:10;;;;;;;0.97;0.80;;;23.10;99.90;;;;;;5015621;28;20225;-86
2021/07/20 11:28:38;;;;;;;1.17;1.10;;;23.20;99.90;;;;;;5017269;28;20206;-87
2021/07/20 11:31:09;;;;;;;0.77;0.77;;;23.70;99.90;;;;;;5008252;28;20270;-85
2021/07/20 11:33:42;;;;;;;0.37;0.27;;;24.60;99.90;;;;;;5020645;28;20186;-86
2021/07/20 11:36:10;;;;;;;1.00;0.77;;;25.00;99.90;;;;;;5031480;28;20182;-86
2021/07/20 11:38:38;;;;;;;1.07;0.80;;;24.60;99.90;;;;;;5012659;28;20674;-86
2021/07/20 11:41:19;;;;;;;2.00;1.17;;;24.50;99.90;;;;;;5013202;28;20182;-86
2021/07/20 11:44:02;;;;;;;1.73;1.20;;;25.00;99.90;;;;;;5018993;28;20534;-87
2021/07/20 11:47:06;;;;;;;1.63;1.07;;;25.50;99.90;;;;;;5038781;28;20336;-87
2021/07/20 11:49:58;;;;;;;1.20;1.17;;;25.60;99.90;;;;;;5008072;28;20249;-87
2021/07/20 11:52:53;;;;;;;0.63;0.63;;;25.80;99.90;;;;;;5014280;28;20183;-87
2021/07/20 11:55:54;;;;;;;1.13;0.60;;;26.00;99.90;;;;;;5030063;28;20676;-86
2021/07/20 11:58:34;;;;;;;0.60;0.60;;;25.80;99.90;;;;;;5028786;28;20208;-86
2021/07/20 12:01:27;;;;;;;1.67;1.20;;;25.30;99.90;;;;;;5015727;28;20688;-86
2021/07/20 12:04:03;;;;;;;1.50;0.63;;;25.20;99.90;;;;;;5011435;28;20185;-87
2021/07/20 12:06:45;;;;;;;1.27;0.63;;;25.50;99.90;;;;;;5029063;28;20292;-89
2021/07/20 12:09:57;;;;;;;1.03;0.70;;;25.50;99.90;;;;;;5018316;28;20675;-86
2021/07/20 12:12:51;;;;;;;0.77;0.77;;;26.10;99.90;;;;;;5015297;28;20185;-86
2021/07/20 12:15:20;;;;;;;0.57;0.57;;;25.90;99.90;;;;;;5022434;28;20247;-86
2021/07/20 12:17:47;;;;;;;0.80;0.70;;;26.30;99.90;;;;;;5015698;28;20269;-86
2021/07/20 12:20:16;;;;;;;1.07;0.83;;;26.20;99.90;;;;;;5030864;28;20210;-86
2021/07/20 12:22:46;;;;;;;1.53;1.17;;;26.30;99.90;;;;;;5014550;28;20187;-84
2021/07/20 12:25:12;;;;;;;1.50;1.40;;;25.20;99.90;;;;;;5009233;28;20202;-85
2021/07/20 12:27:39;;;;;;;1.20;1.10;;;25.30;99.90;;;;;;5010919;28;20183;-84
2021/07/20 12:30:10;;;;;;;1.63;0.93;;;25.50;99.90;;;;;;5030398;28;20274;-85
2021/07/20 12:32:37;;;;;;;0.90;0.77;;;25.60;99.90;;;;;;5045041;28;20229;-85
2021/07/20 12:35:05;;;;;;;1.30;0.93;;;25.90;99.90;;;;;;5023160;28;20178;-85
2021/07/20 12:37:30;;;;;;;0.70;0.70;;;26.20;99.90;;;;;;5024265;28;20182;-87
2021/07/20 12:40:00;;;;;;;0.70;0.43;;;26.40;99.90;;;;;;5030591;28;20737;-85
2021/07/20 12:42:34;;;;;;;1.53;1.17;;;26.20;99.90;;;;;;5029977;28;20211;-85
2021/07/20 12:45:06;;;;;;;1.23;1.07;;;26.30;99.90;;;;;;5024495;28;20193;-85
2021/07/20 12:47:47;;;;;;;0.90;0.73;;;25.70;99.90;;;;;;5017295;28;20269;-85
2021/07/20 12:50:14;;;;;;;1.03;0.93;;;25.20;99.90;;;;;;5045393;28;20186;-88
2021/07/20 12:52:44;;;;;;;1.40;1.30;;;24.90;99.90;;;;;;5008354;28;20182;-85
2021/07/20 12:55:19;;;;;;;0.60;0.57;;;24.60;99.90;;;;;;5035503;28;20212;-85
2021/07/20 12:57:57;;;;;;;2.63;0.70;;;24.40;99.90;;;;;;5026243;28;20614;-85
2021/07/20 13:00:25;;;;;;;0.87;0.87;;;25.10;99.90;;;;;;5019877;28;20204;-85
2021/07/20 13:02:52;;;;;;;0.63;0.63;;;25.70;99.90;;;;;;5015207;28;20190;-85
2021/07/20 13:05:20;;;;;;;1.23;1.00;;;26.10;99.90;;;;;;5017407;28;20697;-85
2021/07/20 13:07:48;;;;;;;0.47;0.47;;;25.60;99.90;;;;;;5027845;28;20179;-85
2021/07/20 13:10:15;;;;;;;0.60;0.60;;;24.90;99.90;;;;;;5029560;28;20205;-85
2021/07/20 13:12:41;;;;;;;1.00;0.57;;;24.60;99.90;;;;;;5033617;28;20594;-85
2021/07/20 13:15:19;;;;;;;1.10;1.00;;;24.80;99.90;;;;;;5024717;28;20186;-84
2021/07/20 13:17:49;;;;;;;2.13;1.30;;;24.90;99.90;;;;;;5016778;28;20174;-85